sensor_id;sensor_type;location;lat;lon;timestamp;P1;durP1;ratioP1;P2;durP2;ratioP2
10517;SDS011;5307;42.548;22.968;2023-01-04T00:02:06;67.40;;;34.53;;
10517;SDS011;5307;42.548;22.968;2023-01-04T00:04:34;63.97;;;33.58;;
10517;SDS011;5307;42.548;22.968;2023-01-04T00:07:01;71.55;;;34.00;;
10517;SDS011;5307;42.548;22.968;2023-01-04T00:09:28;67.95;;;34.35;;
10517;SDS011;5307;42.548;22.968;2023-01-04T00:11:54;67.93;;;34.78;;
10517;SDS011;5307;42.548;22.968;2023-01-04T00:14:21;69.93;;;37.45;;
10517;SDS011;5307;42.548;22.968;2023-01-04T00:16:48;78.72;;;38.00;;
10517;SDS011;5307;42.548;22.968;2023-01-04T00:19:15;73.55;;;35.42;;
10517;SDS011;5307;42.548;22.968;2023-01-04T00:21:43;75.47;;;35.63;;
10517;SDS011;5307;42.548;22.968;2023-01-04T00:24:09;92.97;;;42.00;;
10517;SDS011;5307;42.548;22.968;2023-01-04T00:26:39;74.32;;;38.05;;
10517;SDS011;5307;42.548;22.968;2023-01-04T00:29:06;87.43;;;42.20;;
10517;SDS011;5307;42.548;22.968;2023-01-04T00:31:35;82.85;;;38.28;;
10517;SDS011;5307;42.548;22.968;2023-01-04T00:34:02;82.00;;;39.97;;
10517;SDS011;5307;42.548;22.968;2023-01-04T00:36:30;99.47;;;44.65;;
10517;SDS011;5307;42.548;22.968;2023-01-04T00:38:59;93.60;;;45.17;;
10517;SDS011;5307;42.548;22.968;2023-01-04T00:41:34;89.05;;;46.42;;
10517;SDS011;5307;42.548;22.968;2023-01-04T00:44:03;86.25;;;41.78;;
10517;SDS011;5307;42.548;22.968;2023-01-04T00:46:35;87.85;;;42.28;;
10517;SDS011;5307;42.548;22.968;2023-01-04T00:49:03;90.35;;;41.75;;
10517;SDS011;5307;42.548;22.968;2023-01-04T00:51:31;91.57;;;43.15;;
10517;SDS011;5307;42.548;22.968;2023-01-04T00:54:07;87.28;;;42.65;;
10517;SDS011;5307;42.548;22.968;2023-01-04T00:56:37;101.03;;;44.42;;
10517;SDS011;5307;42.548;22.968;2023-01-04T00:59:04;92.50;;;43.30;;
10517;SDS011;5307;42.548;22.968;2023-01-04T01:01:32;103.32;;;44.25;;
10517;SDS011;5307;42.548;22.968;2023-01-04T01:04:00;90.95;;;43.17;;
10517;SDS011;5307;42.548;22.968;2023-01-04T01:06:28;85.85;;;43.10;;
10517;SDS011;5307;42.548;22.968;2023-01-04T01:08:56;80.10;;;38.40;;
10517;SDS011;5307;42.548;22.968;2023-01-04T01:11:25;96.78;;;45.90;;
10517;SDS011;5307;42.548;22.968;2023-01-04T01:13:52;99.18;;;45.88;;
10517;SDS011;5307;42.548;22.968;2023-01-04T01:16:20;99.00;;;47.65;;
10517;SDS011;5307;42.548;22.968;2023-01-04T01:18:48;87.40;;;43.58;;
10517;SDS011;5307;42.548;22.968;2023-01-04T01:21:16;85.60;;;42.55;;
10517;SDS011;5307;42.548;22.968;2023-01-04T01:23:44;77.00;;;37.92;;
10517;SDS011;5307;42.548;22.968;2023-01-04T01:26:12;85.32;;;39.72;;
10517;SDS011;5307;42.548;22.968;2023-01-04T01:28:41;87.07;;;41.95;;
10517;SDS011;5307;42.548;22.968;2023-01-04T01:31:09;76.00;;;40.00;;
10517;SDS011;5307;42.548;22.968;2023-01-04T01:33:38;82.10;;;39.97;;
10517;SDS011;5307;42.548;22.968;2023-01-04T01:36:06;72.28;;;36.88;;
10517;SDS011;5307;42.548;22.968;2023-01-04T01:38:34;80.40;;;38.45;;
10517;SDS011;5307;42.548;22.968;2023-01-04T01:41:02;95.93;;;41.35;;
10517;SDS011;5307;42.548;22.968;2023-01-04T01:43:49;92.40;;;39.72;;
10517;SDS011;5307;42.548;22.968;2023-01-04T01:46:19;81.90;;;39.63;;
10517;SDS011;5307;42.548;22.968;2023-01-04T01:48:51;76.25;;;39.10;;
10517;SDS011;5307;42.548;22.968;2023-01-04T01:51:20;84.25;;;38.20;;
10517;SDS011;5307;42.548;22.968;2023-01-04T01:53:48;81.53;;;38.13;;
10517;SDS011;5307;42.548;22.968;2023-01-04T01:56:20;75.10;;;39.50;;
10517;SDS011;5307;42.548;22.968;2023-01-04T01:58:49;86.68;;;38.97;;
10517;SDS011;5307;42.548;22.968;2023-01-04T02:01:19;77.78;;;36.58;;
10517;SDS011;5307;42.548;22.968;2023-01-04T02:03:47;71.80;;;36.00;;
10517;SDS011;5307;42.548;22.968;2023-01-04T02:06:16;67.07;;;33.90;;
10517;SDS011;5307;42.548;22.968;2023-01-04T02:08:46;69.65;;;34.38;;
10517;SDS011;5307;42.548;22.968;2023-01-04T02:11:14;75.85;;;34.40;;
10517;SDS011;5307;42.548;22.968;2023-01-04T02:13:41;68.00;;;35.03;;
10517;SDS011;5307;42.548;22.968;2023-01-04T02:16:32;51.88;;;28.60;;
10517;SDS011;5307;42.548;22.968;2023-01-04T02:19:27;54.47;;;27.98;;
10517;SDS011;5307;42.548;22.968;2023-01-04T02:22:18;50.88;;;26.90;;
10517;SDS011;5307;42.548;22.968;2023-01-04T02:25:07;56.00;;;26.27;;
10517;SDS011;5307;42.548;22.968;2023-01-04T02:27:56;52.50;;;25.83;;
10517;SDS011;5307;42.548;22.968;2023-01-04T02:30:34;48.85;;;25.33;;
10517;SDS011;5307;42.548;22.968;2023-01-04T02:33:21;43.08;;;24.52;;
10517;SDS011;5307;42.548;22.968;2023-01-04T02:35:58;50.65;;;23.30;;
10517;SDS011;5307;42.548;22.968;2023-01-04T02:38:35;42.80;;;23.63;;
10517;SDS011;5307;42.548;22.968;2023-01-04T02:41:14;47.30;;;24.75;;
10517;SDS011;5307;42.548;22.968;2023-01-04T02:43:52;54.70;;;25.35;;
10517;SDS011;5307;42.548;22.968;2023-01-04T02:46:40;54.55;;;26.63;;
10517;SDS011;5307;42.548;22.968;2023-01-04T02:49:11;88.03;;;43.60;;
10517;SDS011;5307;42.548;22.968;2023-01-04T02:51:55;73.55;;;36.88;;
10517;SDS011;5307;42.548;22.968;2023-01-04T02:54:22;70.85;;;34.58;;
10517;SDS011;5307;42.548;22.968;2023-01-04T02:57:08;83.65;;;38.42;;
10517;SDS011;5307;42.548;22.968;2023-01-04T02:59:49;96.00;;;46.10;;
10517;SDS011;5307;42.548;22.968;2023-01-04T03:02:38;93.70;;;42.67;;
10517;SDS011;5307;42.548;22.968;2023-01-04T03:05:42;95.65;;;45.42;;
10517;SDS011;5307;42.548;22.968;2023-01-04T03:08:37;100.88;;;45.15;;
10517;SDS011;5307;42.548;22.968;2023-01-04T03:11:08;99.50;;;45.85;;
10517;SDS011;5307;42.548;22.968;2023-01-04T03:13:51;92.55;;;43.25;;
10517;SDS011;5307;42.548;22.968;2023-01-04T03:16:20;91.40;;;43.10;;
10517;SDS011;5307;42.548;22.968;2023-01-04T03:18:52;81.05;;;41.22;;
10517;SDS011;5307;42.548;22.968;2023-01-04T03:21:22;87.10;;;42.28;;
10517;SDS011;5307;42.548;22.968;2023-01-04T03:23:53;86.82;;;41.47;;
10517;SDS011;5307;42.548;22.968;2023-01-04T03:26:42;98.30;;;43.15;;
10517;SDS011;5307;42.548;22.968;2023-01-04T03:29:30;87.80;;;42.72;;
10517;SDS011;5307;42.548;22.968;2023-01-04T03:32:21;81.85;;;39.53;;
10517;SDS011;5307;42.548;22.968;2023-01-04T03:35:11;87.15;;;39.55;;
10517;SDS011;5307;42.548;22.968;2023-01-04T03:37:53;77.55;;;38.83;;
10517;SDS011;5307;42.548;22.968;2023-01-04T03:40:37;83.60;;;39.65;;
10517;SDS011;5307;42.548;22.968;2023-01-04T03:43:26;96.45;;;45.78;;
10517;SDS011;5307;42.548;22.968;2023-01-04T03:56:12;123.65;;;46.40;;
10517;SDS011;5307;42.548;22.968;2023-01-04T03:58:42;125.75;;;47.80;;
10517;SDS011;5307;42.548;22.968;2023-01-04T04:01:10;120.05;;;46.25;;
10517;SDS011;5307;42.548;22.968;2023-01-04T04:03:38;141.82;;;52.47;;
10517;SDS011;5307;42.548;22.968;2023-01-04T04:06:23;134.93;;;52.95;;
10517;SDS011;5307;42.548;22.968;2023-01-04T04:09:07;132.20;;;49.47;;
10517;SDS011;5307;42.548;22.968;2023-01-04T04:11:35;125.38;;;50.35;;
10517;SDS011;5307;42.548;22.968;2023-01-04T04:14:02;122.00;;;48.47;;
10517;SDS011;5307;42.548;22.968;2023-01-04T04:16:29;127.70;;;49.72;;
10517;SDS011;5307;42.548;22.968;2023-01-04T04:18:56;134.80;;;51.30;;
10517;SDS011;5307;42.548;22.968;2023-01-04T04:21:23;141.48;;;50.70;;
10517;SDS011;5307;42.548;22.968;2023-01-04T04:23:49;129.70;;;46.80;;
10517;SDS011;5307;42.548;22.968;2023-01-04T04:26:16;138.20;;;51.08;;
10517;SDS011;5307;42.548;22.968;2023-01-04T04:28:44;144.75;;;48.10;;
10517;SDS011;5307;42.548;22.968;2023-01-04T04:31:11;142.48;;;45.80;;
10517;SDS011;5307;42.548;22.968;2023-01-04T04:33:38;165.88;;;48.55;;
10517;SDS011;5307;42.548;22.968;2023-01-04T04:36:05;186.40;;;50.53;;
10517;SDS011;5307;42.548;22.968;2023-01-04T04:38:33;165.82;;;49.60;;
10517;SDS011;5307;42.548;22.968;2023-01-04T04:41:05;177.18;;;53.70;;
10517;SDS011;5307;42.548;22.968;2023-01-04T04:43:51;318.42;;;58.03;;
10517;SDS011;5307;42.548;22.968;2023-01-04T04:46:18;404.48;;;63.58;;
10517;SDS011;5307;42.548;22.968;2023-01-04T04:48:46;354.65;;;62.70;;
10517;SDS011;5307;42.548;22.968;2023-01-04T04:51:13;555.72;;;71.18;;
10517;SDS011;5307;42.548;22.968;2023-01-04T04:53:39;391.77;;;65.72;;
10517;SDS011;5307;42.548;22.968;2023-01-04T04:56:06;483.38;;;69.78;;
10517;SDS011;5307;42.548;22.968;2023-01-04T04:58:34;392.77;;;65.30;;
10517;SDS011;5307;42.548;22.968;2023-01-04T05:01:03;346.88;;;63.88;;
10517;SDS011;5307;42.548;22.968;2023-01-04T05:03:31;268.58;;;54.75;;
10517;SDS011;5307;42.548;22.968;2023-01-04T05:05:58;270.30;;;54.17;;
10517;SDS011;5307;42.548;22.968;2023-01-04T05:08:24;152.00;;;41.08;;
10517;SDS011;5307;42.548;22.968;2023-01-04T05:10:51;124.55;;;40.60;;
10517;SDS011;5307;42.548;22.968;2023-01-04T05:13:19;171.43;;;42.38;;
10517;SDS011;5307;42.548;22.968;2023-01-04T05:15:45;204.10;;;45.28;;
10517;SDS011;5307;42.548;22.968;2023-01-04T05:18:16;157.98;;;44.45;;
10517;SDS011;5307;42.548;22.968;2023-01-04T05:20:44;160.45;;;40.42;;
10517;SDS011;5307;42.548;22.968;2023-01-04T05:23:11;112.57;;;41.03;;
10517;SDS011;5307;42.548;22.968;2023-01-04T05:25:39;137.60;;;41.78;;
10517;SDS011;5307;42.548;22.968;2023-01-04T05:28:06;150.88;;;44.65;;
10517;SDS011;5307;42.548;22.968;2023-01-04T05:30:33;206.02;;;54.55;;
10517;SDS011;5307;42.548;22.968;2023-01-04T05:33:20;271.33;;;52.42;;
10517;SDS011;5307;42.548;22.968;2023-01-04T05:35:47;217.90;;;49.30;;
10517;SDS011;5307;42.548;22.968;2023-01-04T05:38:15;212.93;;;55.05;;
10517;SDS011;5307;42.548;22.968;2023-01-04T05:40:42;221.68;;;53.42;;
10517;SDS011;5307;42.548;22.968;2023-01-04T05:43:09;249.10;;;54.35;;
10517;SDS011;5307;42.548;22.968;2023-01-04T05:45:38;204.73;;;55.15;;
10517;SDS011;5307;42.548;22.968;2023-01-04T05:48:05;228.38;;;56.78;;
10517;SDS011;5307;42.548;22.968;2023-01-04T05:50:33;200.07;;;50.20;;
10517;SDS011;5307;42.548;22.968;2023-01-04T05:53:00;206.32;;;55.10;;
10517;SDS011;5307;42.548;22.968;2023-01-04T05:55:27;201.50;;;55.85;;
10517;SDS011;5307;42.548;22.968;2023-01-04T05:57:54;184.55;;;51.97;;
10517;SDS011;5307;42.548;22.968;2023-01-04T06:00:20;216.70;;;57.83;;
10517;SDS011;5307;42.548;22.968;2023-01-04T06:02:47;184.77;;;59.28;;
10517;SDS011;5307;42.548;22.968;2023-01-04T06:05:16;275.13;;;72.32;;
10517;SDS011;5307;42.548;22.968;2023-01-04T06:07:45;232.32;;;61.13;;
10517;SDS011;5307;42.548;22.968;2023-01-04T06:10:12;218.80;;;57.42;;
10517;SDS011;5307;42.548;22.968;2023-01-04T06:12:39;194.50;;;52.33;;
10517;SDS011;5307;42.548;22.968;2023-01-04T06:15:07;242.88;;;58.85;;
10517;SDS011;5307;42.548;22.968;2023-01-04T06:17:35;196.27;;;55.88;;
10517;SDS011;5307;42.548;22.968;2023-01-04T06:20:04;300.42;;;70.22;;
10517;SDS011;5307;42.548;22.968;2023-01-04T06:22:34;273.90;;;64.53;;
10517;SDS011;5307;42.548;22.968;2023-01-04T06:25:03;238.55;;;67.75;;
10517;SDS011;5307;42.548;22.968;2023-01-04T06:27:30;263.23;;;64.45;;
10517;SDS011;5307;42.548;22.968;2023-01-04T06:29:57;357.15;;;80.15;;
10517;SDS011;5307;42.548;22.968;2023-01-04T06:32:24;363.77;;;91.53;;
10517;SDS011;5307;42.548;22.968;2023-01-04T06:34:50;332.33;;;91.28;;
10517;SDS011;5307;42.548;22.968;2023-01-04T06:37:17;315.70;;;88.50;;
10517;SDS011;5307;42.548;22.968;2023-01-04T06:39:44;295.70;;;75.85;;
10517;SDS011;5307;42.548;22.968;2023-01-04T06:42:12;390.70;;;87.53;;
10517;SDS011;5307;42.548;22.968;2023-01-04T06:44:53;275.55;;;70.60;;
10517;SDS011;5307;42.548;22.968;2023-01-04T06:47:20;318.63;;;71.03;;
10517;SDS011;5307;42.548;22.968;2023-01-04T06:49:47;218.15;;;63.67;;
10517;SDS011;5307;42.548;22.968;2023-01-04T06:52:13;188.88;;;51.15;;
10517;SDS011;5307;42.548;22.968;2023-01-04T06:54:40;230.98;;;54.55;;
10517;SDS011;5307;42.548;22.968;2023-01-04T06:57:07;199.55;;;51.28;;
10517;SDS011;5307;42.548;22.968;2023-01-04T06:59:35;223.35;;;61.53;;
10517;SDS011;5307;42.548;22.968;2023-01-04T07:02:02;289.02;;;62.92;;
10517;SDS011;5307;42.548;22.968;2023-01-04T07:04:29;208.43;;;58.15;;
10517;SDS011;5307;42.548;22.968;2023-01-04T07:06:56;249.25;;;61.60;;
10517;SDS011;5307;42.548;22.968;2023-01-04T07:09:23;224.88;;;62.00;;
10517;SDS011;5307;42.548;22.968;2023-01-04T07:11:49;241.43;;;63.55;;
10517;SDS011;5307;42.548;22.968;2023-01-04T07:14:16;227.50;;;60.88;;
10517;SDS011;5307;42.548;22.968;2023-01-04T07:16:45;202.23;;;58.78;;
10517;SDS011;5307;42.548;22.968;2023-01-04T07:19:12;192.07;;;58.42;;
10517;SDS011;5307;42.548;22.968;2023-01-04T07:21:38;245.32;;;55.75;;
10517;SDS011;5307;42.548;22.968;2023-01-04T07:24:05;202.25;;;60.33;;
10517;SDS011;5307;42.548;22.968;2023-01-04T07:26:32;230.02;;;55.80;;
10517;SDS011;5307;42.548;22.968;2023-01-04T07:28:59;165.80;;;54.67;;
10517;SDS011;5307;42.548;22.968;2023-01-04T07:31:42;175.18;;;57.08;;
10517;SDS011;5307;42.548;22.968;2023-01-04T07:34:12;159.38;;;54.13;;
10517;SDS011;5307;42.548;22.968;2023-01-04T07:36:46;193.25;;;61.65;;
10517;SDS011;5307;42.548;22.968;2023-01-04T07:39:13;173.05;;;61.70;;
10517;SDS011;5307;42.548;22.968;2023-01-04T07:41:41;156.50;;;58.33;;
10517;SDS011;5307;42.548;22.968;2023-01-04T07:46:42;152.30;;;58.38;;
10517;SDS011;5307;42.548;22.968;2023-01-04T07:49:09;139.73;;;58.53;;
10517;SDS011;5307;42.548;22.968;2023-01-04T07:51:38;139.95;;;58.22;;
10517;SDS011;5307;42.548;22.968;2023-01-04T07:54:05;146.13;;;60.80;;
10517;SDS011;5307;42.548;22.968;2023-01-04T07:56:32;150.27;;;61.40;;
10517;SDS011;5307;42.548;22.968;2023-01-04T07:58:59;138.82;;;62.25;;
10517;SDS011;5307;42.548;22.968;2023-01-04T08:01:26;146.68;;;63.90;;
10517;SDS011;5307;42.548;22.968;2023-01-04T08:03:53;147.98;;;63.55;;
10517;SDS011;5307;42.548;22.968;2023-01-04T08:06:21;135.75;;;60.22;;
10517;SDS011;5307;42.548;22.968;2023-01-04T08:08:50;106.75;;;46.67;;
10517;SDS011;5307;42.548;22.968;2023-01-04T08:11:18;107.10;;;45.42;;
10517;SDS011;5307;42.548;22.968;2023-01-04T08:13:48;93.80;;;40.05;;
10517;SDS011;5307;42.548;22.968;2023-01-04T08:16:17;94.75;;;41.38;;
10517;SDS011;5307;42.548;22.968;2023-01-04T08:18:46;93.38;;;41.67;;
10517;SDS011;5307;42.548;22.968;2023-01-04T08:21:13;83.40;;;37.72;;
10517;SDS011;5307;42.548;22.968;2023-01-04T08:23:42;79.63;;;39.53;;
10517;SDS011;5307;42.548;22.968;2023-01-04T08:26:10;71.00;;;34.90;;
10517;SDS011;5307;42.548;22.968;2023-01-04T08:28:39;92.15;;;39.80;;
10517;SDS011;5307;42.548;22.968;2023-01-04T08:31:06;84.93;;;37.63;;
10517;SDS011;5307;42.548;22.968;2023-01-04T08:33:37;82.43;;;38.30;;
10517;SDS011;5307;42.548;22.968;2023-01-04T08:36:08;91.25;;;38.95;;
10517;SDS011;5307;42.548;22.968;2023-01-04T08:38:37;85.30;;;41.00;;
10517;SDS011;5307;42.548;22.968;2023-01-04T08:41:05;105.45;;;45.55;;
10517;SDS011;5307;42.548;22.968;2023-01-04T08:43:32;105.95;;;50.80;;
10517;SDS011;5307;42.548;22.968;2023-01-04T08:46:01;132.32;;;55.45;;
10517;SDS011;5307;42.548;22.968;2023-01-04T08:48:28;116.57;;;55.28;;
10517;SDS011;5307;42.548;22.968;2023-01-04T08:50:56;119.18;;;53.38;;
10517;SDS011;5307;42.548;22.968;2023-01-04T08:53:24;96.82;;;46.55;;
10517;SDS011;5307;42.548;22.968;2023-01-04T08:55:51;96.40;;;46.28;;
10517;SDS011;5307;42.548;22.968;2023-01-04T08:58:20;87.18;;;44.13;;
10517;SDS011;5307;42.548;22.968;2023-01-04T09:00:47;75.95;;;38.13;;
10517;SDS011;5307;42.548;22.968;2023-01-04T09:03:14;78.07;;;41.00;;
10517;SDS011;5307;42.548;22.968;2023-01-04T09:05:41;85.30;;;41.88;;
10517;SDS011;5307;42.548;22.968;2023-01-04T09:08:09;82.82;;;44.22;;
10517;SDS011;5307;42.548;22.968;2023-01-04T09:10:36;85.97;;;45.47;;
10517;SDS011;5307;42.548;22.968;2023-01-04T09:13:03;102.95;;;47.80;;
10517;SDS011;5307;42.548;22.968;2023-01-04T09:15:32;96.68;;;45.45;;
10517;SDS011;5307;42.548;22.968;2023-01-04T09:17:59;99.95;;;49.20;;
10517;SDS011;5307;42.548;22.968;2023-01-04T09:20:25;91.72;;;48.28;;
10517;SDS011;5307;42.548;22.968;2023-01-04T09:22:52;96.00;;;48.30;;
10517;SDS011;5307;42.548;22.968;2023-01-04T09:25:19;94.28;;;48.75;;
10517;SDS011;5307;42.548;22.968;2023-01-04T09:27:46;100.25;;;49.80;;
10517;SDS011;5307;42.548;22.968;2023-01-04T09:30:13;110.60;;;54.95;;
10517;SDS011;5307;42.548;22.968;2023-01-04T09:32:41;106.95;;;53.75;;
10517;SDS011;5307;42.548;22.968;2023-01-04T09:35:08;108.80;;;55.45;;
10517;SDS011;5307;42.548;22.968;2023-01-04T09:37:36;126.38;;;62.20;;
10517;SDS011;5307;42.548;22.968;2023-01-04T09:40:03;121.72;;;59.47;;
10517;SDS011;5307;42.548;22.968;2023-01-04T09:42:31;112.80;;;56.58;;
10517;SDS011;5307;42.548;22.968;2023-01-04T09:45:07;93.90;;;49.35;;
10517;SDS011;5307;42.548;22.968;2023-01-04T09:47:44;125.50;;;61.72;;
10517;SDS011;5307;42.548;22.968;2023-01-04T09:50:15;121.70;;;64.00;;
10517;SDS011;5307;42.548;22.968;2023-01-04T09:52:49;110.22;;;59.42;;
10517;SDS011;5307;42.548;22.968;2023-01-04T09:55:22;58.17;;;31.50;;
10517;SDS011;5307;42.548;22.968;2023-01-04T09:57:54;22.92;;;13.10;;
10517;SDS011;5307;42.548;22.968;2023-01-04T10:00:26;35.03;;;18.77;;
10517;SDS011;5307;42.548;22.968;2023-01-04T10:02:57;33.03;;;18.63;;
10517;SDS011;5307;42.548;22.968;2023-01-04T10:05:31;22.10;;;10.48;;
10517;SDS011;5307;42.548;22.968;2023-01-04T10:08:00;20.65;;;11.60;;
10517;SDS011;5307;42.548;22.968;2023-01-04T10:10:33;17.98;;;10.35;;
10517;SDS011;5307;42.548;22.968;2023-01-04T10:13:13;18.98;;;11.52;;
10517;SDS011;5307;42.548;22.968;2023-01-04T10:15:50;12.93;;;7.35;;
10517;SDS011;5307;42.548;22.968;2023-01-04T10:18:28;40.97;;;18.15;;
10517;SDS011;5307;42.548;22.968;2023-01-04T10:21:10;15.48;;;9.30;;
10517;SDS011;5307;42.548;22.968;2023-01-04T10:23:57;13.35;;;9.50;;
10517;SDS011;5307;42.548;22.968;2023-01-04T10:26:36;19.50;;;10.68;;
10517;SDS011;5307;42.548;22.968;2023-01-04T10:29:17;13.98;;;9.30;;
10517;SDS011;5307;42.548;22.968;2023-01-04T10:31:57;15.95;;;8.93;;
10517;SDS011;5307;42.548;22.968;2023-01-04T10:34:30;15.55;;;9.77;;
10517;SDS011;5307;42.548;22.968;2023-01-04T10:37:03;9.43;;;5.63;;
10517;SDS011;5307;42.548;22.968;2023-01-04T10:39:38;17.45;;;10.18;;
10517;SDS011;5307;42.548;22.968;2023-01-04T10:42:09;18.27;;;8.88;;
10517;SDS011;5307;42.548;22.968;2023-01-04T10:44:44;17.23;;;10.90;;
10517;SDS011;5307;42.548;22.968;2023-01-04T10:47:21;18.95;;;11.40;;
10517;SDS011;5307;42.548;22.968;2023-01-04T10:49:56;15.15;;;9.45;;
10517;SDS011;5307;42.548;22.968;2023-01-04T10:52:29;19.40;;;9.90;;
10517;SDS011;5307;42.548;22.968;2023-01-04T10:55:02;17.92;;;8.73;;
10517;SDS011;5307;42.548;22.968;2023-01-04T10:57:35;15.88;;;9.25;;
10517;SDS011;5307;42.548;22.968;2023-01-04T11:00:09;23.02;;;10.13;;
10517;SDS011;5307;42.548;22.968;2023-01-04T11:02:43;17.90;;;10.30;;
10517;SDS011;5307;42.548;22.968;2023-01-04T11:05:16;19.10;;;10.32;;
10517;SDS011;5307;42.548;22.968;2023-01-04T11:07:48;22.55;;;9.95;;
10517;SDS011;5307;42.548;22.968;2023-01-04T11:10:21;26.67;;;13.35;;
10517;SDS011;5307;42.548;22.968;2023-01-04T11:12:53;40.25;;;17.08;;
10517;SDS011;5307;42.548;22.968;2023-01-04T11:15:20;21.63;;;10.27;;
10517;SDS011;5307;42.548;22.968;2023-01-04T11:17:46;12.77;;;7.93;;
10517;SDS011;5307;42.548;22.968;2023-01-04T11:20:14;15.82;;;9.02;;
10517;SDS011;5307;42.548;22.968;2023-01-04T11:28:56;20.45;;;11.45;;
10517;SDS011;5307;42.548;22.968;2023-01-04T11:31:27;14.43;;;8.45;;
10517;SDS011;5307;42.548;22.968;2023-01-04T11:34:02;16.58;;;8.80;;
10517;SDS011;5307;42.548;22.968;2023-01-04T11:36:34;16.65;;;10.05;;
10517;SDS011;5307;42.548;22.968;2023-01-04T11:39:04;12.48;;;8.20;;
10517;SDS011;5307;42.548;22.968;2023-01-04T11:41:32;16.23;;;8.70;;
10517;SDS011;5307;42.548;22.968;2023-01-04T11:44:00;17.65;;;9.40;;
10517;SDS011;5307;42.548;22.968;2023-01-04T11:46:28;8.82;;;5.05;;
10517;SDS011;5307;42.548;22.968;2023-01-04T11:48:56;16.13;;;9.43;;
10517;SDS011;5307;42.548;22.968;2023-01-04T11:51:33;21.02;;;12.55;;
10517;SDS011;5307;42.548;22.968;2023-01-04T11:54:06;18.73;;;10.48;;
10517;SDS011;5307;42.548;22.968;2023-01-04T11:59:27;15.27;;;9.25;;
10517;SDS011;5307;42.548;22.968;2023-01-04T12:04:51;16.85;;;9.85;;
10517;SDS011;5307;42.548;22.968;2023-01-04T12:07:23;18.02;;;10.95;;
10517;SDS011;5307;42.548;22.968;2023-01-04T12:09:58;20.30;;;11.52;;
10517;SDS011;5307;42.548;22.968;2023-01-04T12:12:27;25.25;;;13.88;;
10517;SDS011;5307;42.548;22.968;2023-01-04T12:14:58;16.73;;;10.30;;
10517;SDS011;5307;42.548;22.968;2023-01-04T12:17:40;24.77;;;10.50;;
10517;SDS011;5307;42.548;22.968;2023-01-04T12:20:18;14.95;;;8.38;;
10517;SDS011;5307;42.548;22.968;2023-01-04T12:22:46;14.82;;;9.18;;
10517;SDS011;5307;42.548;22.968;2023-01-04T12:25:31;20.65;;;12.07;;
10517;SDS011;5307;42.548;22.968;2023-01-04T12:28:03;15.35;;;7.70;;
10517;SDS011;5307;42.548;22.968;2023-01-04T12:30:32;14.73;;;8.95;;
10517;SDS011;5307;42.548;22.968;2023-01-04T12:33:05;15.00;;;8.98;;
10517;SDS011;5307;42.548;22.968;2023-01-04T12:36:07;17.67;;;9.93;;
10517;SDS011;5307;42.548;22.968;2023-01-04T12:44:57;12.98;;;9.45;;
10517;SDS011;5307;42.548;22.968;2023-01-04T12:53:57;16.10;;;9.50;;
10517;SDS011;5307;42.548;22.968;2023-01-04T12:59:34;20.23;;;8.45;;
10517;SDS011;5307;42.548;22.968;2023-01-04T13:02:13;14.35;;;6.65;;
10517;SDS011;5307;42.548;22.968;2023-01-04T13:04:43;16.25;;;9.43;;
10517;SDS011;5307;42.548;22.968;2023-01-04T13:07:13;13.38;;;8.50;;
10517;SDS011;5307;42.548;22.968;2023-01-04T13:09:45;16.65;;;9.18;;
10517;SDS011;5307;42.548;22.968;2023-01-04T13:12:25;19.95;;;9.68;;
10517;SDS011;5307;42.548;22.968;2023-01-04T13:15:09;21.67;;;12.02;;
10517;SDS011;5307;42.548;22.968;2023-01-04T13:17:44;15.70;;;8.45;;
10517;SDS011;5307;42.548;22.968;2023-01-04T13:20:13;13.20;;;8.65;;
10517;SDS011;5307;42.548;22.968;2023-01-04T13:22:44;14.15;;;9.40;;
10517;SDS011;5307;42.548;22.968;2023-01-04T13:25:16;18.38;;;11.60;;
10517;SDS011;5307;42.548;22.968;2023-01-04T13:27:54;21.45;;;10.32;;
10517;SDS011;5307;42.548;22.968;2023-01-04T13:30:31;14.23;;;4.95;;
10517;SDS011;5307;42.548;22.968;2023-01-04T13:33:06;13.32;;;7.72;;
10517;SDS011;5307;42.548;22.968;2023-01-04T13:35:34;15.35;;;9.50;;
10517;SDS011;5307;42.548;22.968;2023-01-04T13:38:01;16.45;;;9.02;;
10517;SDS011;5307;42.548;22.968;2023-01-04T13:40:28;16.23;;;9.85;;
10517;SDS011;5307;42.548;22.968;2023-01-04T13:43:12;15.15;;;9.60;;
10517;SDS011;5307;42.548;22.968;2023-01-04T13:46:10;22.50;;;10.88;;
10517;SDS011;5307;42.548;22.968;2023-01-04T13:48:40;15.38;;;9.50;;
10517;SDS011;5307;42.548;22.968;2023-01-04T13:51:12;14.50;;;8.65;;
10517;SDS011;5307;42.548;22.968;2023-01-04T13:53:41;13.75;;;6.60;;
10517;SDS011;5307;42.548;22.968;2023-01-04T13:56:18;23.15;;;14.38;;
10517;SDS011;5307;42.548;22.968;2023-01-04T13:58:45;22.25;;;13.57;;
10517;SDS011;5307;42.548;22.968;2023-01-04T14:01:15;20.23;;;12.50;;
10517;SDS011;5307;42.548;22.968;2023-01-04T14:03:46;12.95;;;8.48;;
10517;SDS011;5307;42.548;22.968;2023-01-04T14:06:21;22.08;;;12.95;;
10517;SDS011;5307;42.548;22.968;2023-01-04T14:08:57;25.33;;;13.32;;
10517;SDS011;5307;42.548;22.968;2023-01-04T14:11:39;22.27;;;13.27;;
10517;SDS011;5307;42.548;22.968;2023-01-04T14:17:37;35.17;;;18.33;;
10517;SDS011;5307;42.548;22.968;2023-01-04T14:20:38;25.05;;;13.95;;
10517;SDS011;5307;42.548;22.968;2023-01-04T14:28:59;20.77;;;11.55;;
10517;SDS011;5307;42.548;22.968;2023-01-04T14:32:13;27.00;;;14.52;;
10517;SDS011;5307;42.548;22.968;2023-01-04T14:34:50;23.02;;;12.75;;
10517;SDS011;5307;42.548;22.968;2023-01-04T14:37:17;23.90;;;11.07;;
10517;SDS011;5307;42.548;22.968;2023-01-04T14:42:27;22.95;;;12.65;;
10517;SDS011;5307;42.548;22.968;2023-01-04T14:44:56;18.42;;;11.30;;
10517;SDS011;5307;42.548;22.968;2023-01-04T14:47:23;24.45;;;13.80;;
10517;SDS011;5307;42.548;22.968;2023-01-04T14:49:51;42.55;;;21.60;;
10517;SDS011;5307;42.548;22.968;2023-01-04T14:52:19;38.55;;;20.08;;
10517;SDS011;5307;42.548;22.968;2023-01-04T14:54:48;40.92;;;18.67;;
10517;SDS011;5307;42.548;22.968;2023-01-04T14:57:15;33.83;;;16.38;;
10517;SDS011;5307;42.548;22.968;2023-01-04T14:59:42;26.10;;;12.70;;
10517;SDS011;5307;42.548;22.968;2023-01-04T15:02:11;27.40;;;14.60;;
10517;SDS011;5307;42.548;22.968;2023-01-04T15:04:38;35.28;;;17.25;;
10517;SDS011;5307;42.548;22.968;2023-01-04T15:07:22;23.75;;;13.70;;
10517;SDS011;5307;42.548;22.968;2023-01-04T15:09:57;22.30;;;13.50;;
10517;SDS011;5307;42.548;22.968;2023-01-04T15:12:27;22.45;;;13.93;;
10517;SDS011;5307;42.548;22.968;2023-01-04T15:14:54;19.25;;;11.68;;
10517;SDS011;5307;42.548;22.968;2023-01-04T15:17:21;24.40;;;13.82;;
10517;SDS011;5307;42.548;22.968;2023-01-04T15:19:47;54.90;;;27.35;;
10517;SDS011;5307;42.548;22.968;2023-01-04T15:22:15;32.00;;;15.75;;
10517;SDS011;5307;42.548;22.968;2023-01-04T15:24:42;31.58;;;18.83;;
10517;SDS011;5307;42.548;22.968;2023-01-04T15:27:09;33.17;;;19.42;;
10517;SDS011;5307;42.548;22.968;2023-01-04T15:29:36;25.45;;;15.68;;
10517;SDS011;5307;42.548;22.968;2023-01-04T15:32:03;39.80;;;20.75;;
10517;SDS011;5307;42.548;22.968;2023-01-04T15:34:30;27.23;;;15.23;;
10517;SDS011;5307;42.548;22.968;2023-01-04T15:36:57;25.95;;;14.95;;